Time;durP1;ratioP1;P1;durP2;ratioP2;P2;SDS_P1;SDS_P2;PMS_P1;PMS_P2;Temp;Humidity;BMP_temperature;BMP_pressure;BME280_temperature;BME280_humidity;BME280_pressure;Samples;Min_cycle;Max_cycle;Signal;HPM_P1;HPM_P2
2022/10/03 00:00:17;;;;;;;11.15;10.35;;;;;;;-141.48;100.00;69781.59;5186092;28;20091;-67
2022/10/03 00:03:12;;;;;;;10.88;10.07;;;;;;;-141.48;100.00;69781.59;5185705;28;20026;-67
2022/10/03 00:06:09;;;;;;;9.77;9.00;;;;;;;-141.48;100.00;69781.59;5186843;28;20116;-67
2022/10/03 00:08:58;;;;;;;10.82;9.73;;;;;;;-141.48;100.00;69781.59;5185386;28;20691;-67
2022/10/03 00:11:57;;;;;;;10.95;10.25;;;;;;;-141.48;100.00;69781.59;5186023;28;20029;-68
2022/10/03 00:15:02;;;;;;;14.65;9.70;;;;;;;-141.48;100.00;69781.59;5184891;28;20036;-67
2022/10/03 00:17:54;;;;;;;17.27;10.93;;;;;;;-141.48;100.00;69781.59;5185940;28;20045;-67
2022/10/03 00:20:46;;;;;;;10.60;9.70;;;;;;;-141.48;100.00;69781.59;5185715;28;20034;-67
2022/10/03 00:23:23;;;;;;;12.40;9.80;;;;;;;-141.48;100.00;69781.59;5185572;28;20033;-67
2022/10/03 00:26:37;;;;;;;12.75;10.65;;;;;;;-141.48;100.00;69781.59;5215879;22;20103;-78
2022/10/03 00:29:28;;;;;;;12.23;11.15;;;;;;;-141.48;100.00;69781.59;5190838;28;20048;-79
2022/10/03 00:32:35;;;;;;;13.30;10.45;;;;;;;-141.48;100.00;69781.59;5220385;28;20029;-80
2022/10/03 00:35:11;;;;;;;17.60;13.40;;;;;;;-141.48;100.00;69781.59;5200161;28;20030;-76
2022/10/03 00:38:05;;;;;;;15.05;12.10;;;;;;;-141.48;100.00;69781.59;5201692;28;20034;-78
2022/10/03 00:40:44;;;;;;;13.30;12.02;;;;;;;-141.48;100.00;69781.59;5155873;28;20042;-79
2022/10/03 00:43:24;;;;;;;14.35;11.63;;;;;;;-141.48;100.00;69781.59;5181757;28;20073;-80
2022/10/03 00:46:19;;;;;;;15.77;10.55;;;;;;;-141.48;100.00;69781.59;5188926;28;20037;-79
2022/10/03 00:49:21;;;;;;;17.95;11.30;;;;;;;-141.48;100.00;69781.59;5188413;28;20029;-80
2022/10/03 00:52:22;;;;;;;12.68;10.25;;;;;;;-141.48;100.00;69781.59;5171531;28;20341;-80
2022/10/03 00:55:12;;;;;;;9.43;8.32;;;;;;;-141.48;100.00;69781.59;5189775;28;20026;-77
2022/10/03 00:58:04;;;;;;;9.93;9.10;;;;;;;-141.48;100.00;69781.59;5173964;28;20022;-78
2022/10/03 01:00:35;;;;;;;11.60;10.32;;;;;;;-141.48;100.00;69781.59;5201527;28;20034;-77
2022/10/03 01:03:05;;;;;;;10.35;9.35;;;;;;;-141.48;100.00;69781.59;5179725;28;20056;-81
2022/10/03 01:06:19;;;;;;;11.65;10.45;;;;;;;-141.48;100.00;69781.59;5187276;28;20045;-80
2022/10/03 01:09:05;;;;;;;10.43;9.70;;;;;;;-141.48;100.00;69781.59;5188543;28;20026;-80
2022/10/03 01:12:01;;;;;;;10.82;9.85;;;;;;;-141.48;100.00;69781.59;5188458;28;20033;-79
2022/10/03 01:14:48;;;;;;;10.82;9.73;;;;;;;-141.48;100.00;69781.59;5186572;28;20037;-79
2022/10/03 01:17:26;;;;;;;10.63;9.68;;;;;;;-141.48;100.00;69781.59;5187654;28;20022;-78
2022/10/03 01:20:26;;;;;;;10.88;9.95;;;;;;;-141.48;100.00;69781.59;5194570;28;20145;-79
2022/10/03 01:23:18;;;;;;;11.35;10.27;;;;;;;-141.48;100.00;69781.59;5194036;28;20039;-78
2022/10/03 01:26:04;;;;;;;9.90;9.18;;;;;;;-141.48;100.00;69781.59;5193424;28;20033;-79
2022/10/03 01:31:43;;;;;;;18.33;11.07;;;;;;;-141.48;100.00;69781.59;1661539;26;20079;-65
2022/10/03 01:35:10;;;;;;;13.35;9.63;;;;;;;-141.48;100.00;69781.59;5203466;28;20539;-66
2022/10/03 01:37:53;;;;;;;18.98;9.80;;;;;;;-141.48;100.00;69781.59;5104562;29;20344;-65
2022/10/03 01:40:49;;;;;;;10.73;10.00;;;;;;;-141.48;100.00;69781.59;5088552;29;20612;-66
2022/10/03 01:43:43;;;;;;;11.10;10.20;;;;;;;-141.48;100.00;69781.59;5177178;28;20072;-66
2022/10/03 01:46:22;;;;;;;16.35;11.73;;;;;;;-141.48;100.00;69781.59;5185721;28;20139;-66
2022/10/03 01:49:05;;;;;;;10.63;9.65;;;;;;;-141.48;100.00;69781.59;5185875;28;20032;-66
2022/10/03 01:51:58;;;;;;;10.00;9.10;;;;;;;-141.48;100.00;69781.59;5185743;28;20062;-67
2022/10/03 01:54:38;;;;;;;14.68;11.55;;;;;;;-141.48;100.00;69781.59;5185486;28;20540;-66
2022/10/03 01:57:17;;;;;;;11.02;9.95;;;;;;;-141.48;100.00;69781.59;5185768;28;20033;-67
2022/10/03 01:59:59;;;;;;;10.60;9.70;;;;;;;-141.48;100.00;69781.59;5185205;28;20354;-66
2022/10/03 02:03:16;;;;;;;14.68;9.27;;;;;;;-141.48;100.00;69781.59;5185453;28;20047;-66
2022/10/03 02:06:05;;;;;;;11.57;10.52;;;;;;;-141.48;100.00;69781.59;5099587;29;20163;-66
2022/10/03 02:09:05;;;;;;;11.50;10.52;;;;;;;-141.48;100.00;69781.59;5180319;28;20034;-66
2022/10/03 02:11:53;;;;;;;15.70;12.27;;;;;;;-141.48;100.00;69781.59;5185568;28;20079;-67
2022/10/03 02:14:33;;;;;;;10.73;9.85;;;;;;;-141.48;100.00;69781.59;5184918;28;20121;-66
2022/10/03 02:17:29;;;;;;;13.05;12.10;;;;;;;-141.48;100.00;69781.59;5185150;28;20121;-66
2022/10/03 02:20:12;;;;;;;18.48;10.60;;;;;;;-141.48;100.00;69781.59;5184799;28;20049;-66
2022/10/03 02:22:45;;;;;;;12.77;11.52;;;;;;;-141.48;100.00;69781.59;5185296;28;20029;-66
2022/10/03 02:25:22;;;;;;;19.98;11.88;;;;;;;-141.48;100.00;69781.59;5184695;28;20013;-66
2022/10/03 02:27:57;;;;;;;11.32;10.55;;;;;;;-141.48;100.00;69781.59;5184891;28;20377;-66
2022/10/03 02:30:56;;;;;;;11.10;10.02;;;;;;;-141.48;100.00;69781.59;5184863;28;20025;-67
2022/10/03 02:33:53;;;;;;;11.77;10.05;;;;;;;-141.48;100.00;69781.59;5184876;28;20440;-67
2022/10/03 02:36:30;;;;;;;17.02;12.80;;;;;;;-141.48;100.00;69781.59;5185151;28;20068;-67
2022/10/03 02:39:20;;;;;;;12.80;11.60;;;;;;;-141.48;100.00;69781.59;5187291;28;20037;-66
2022/10/03 02:42:29;;;;;;;13.70;12.50;;;;;;;-141.48;100.00;69781.59;5188897;28;20064;-67
2022/10/03 02:45:47;;;;;;;13.20;11.83;;;;;;;-141.48;100.00;69781.59;5200660;28;20066;-66
2022/10/03 02:48:41;;;;;;;13.45;12.43;;;;;;;-141.48;100.00;69781.59;5188854;28;20037;-66
2022/10/03 02:51:25;;;;;;;11.32;10.38;;;;;;;-141.48;100.00;69781.59;5188891;28;20033;-66
2022/10/03 02:54:33;;;;;;;11.02;10.20;;;;;;;-141.48;100.00;69781.59;5188492;28;20025;-66
2022/10/03 02:57:22;;;;;;;10.10;9.13;;;;;;;-141.48;100.00;69781.59;5188883;28;20037;-66
2022/10/03 03:00:08;;;;;;;13.90;12.60;;;;;;;-141.48;100.00;69781.59;5189007;28;20029;-66
2022/10/03 03:02:53;;;;;;;12.23;11.15;;;;;;;-141.48;100.00;69781.59;5188676;28;20482;-67
2022/10/03 03:05:57;;;;;;;10.98;10.38;;;;;;;-141.48;100.00;69781.59;5188418;28;20357;-67
2022/10/03 03:08:59;;;;;;;11.20;10.50;;;;;;;-141.48;100.00;69781.59;5188937;28;20041;-66
2022/10/03 03:11:52;;;;;;;13.43;10.32;;;;;;;-141.48;100.00;69781.59;5188802;28;20087;-66
2022/10/03 03:14:59;;;;;;;11.85;10.85;;;;;;;-141.48;100.00;69781.59;5188636;28;20032;-65
2022/10/03 03:17:44;;;;;;;12.68;11.23;;;;;;;-141.48;100.00;69781.59;5188531;28;20033;-66
2022/10/03 03:20:39;;;;;;;11.15;10.35;;;;;;;-141.48;100.00;69781.59;5188416;28;20151;-66
2022/10/03 03:23:35;;;;;;;24.35;10.90;;;;;;;-141.48;100.00;69781.59;5188502;28;20437;-65
2022/10/03 03:26:35;;;;;;;16.58;10.68;;;;;;;-141.48;100.00;69781.59;5188703;28;20022;-65
2022/10/03 03:29:35;;;;;;;11.70;10.70;;;;;;;-141.48;100.00;69781.59;5188529;28;20021;-68
2022/10/03 03:32:19;;;;;;;12.35;11.55;;;;;;;-141.48;100.00;69781.59;5190872;28;20524;-67
2022/10/03 03:35:08;;;;;;;11.90;11.00;;;;;;;-141.48;100.00;69781.59;5188288;28;20493;-66
2022/10/03 03:37:58;;;;;;;13.30;12.02;;;;;;;-141.48;100.00;69781.59;5188460;28;20516;-65
2022/10/03 03:41:07;;;;;;;13.55;12.48;;;;;;;-141.48;100.00;69781.59;5188874;28;20032;-66
2022/10/03 03:43:47;;;;;;;11.13;10.32;;;;;;;-141.48;100.00;69781.59;5187984;28;20036;-66
2022/10/03 03:46:25;;;;;;;;;;;;;;;-141.48;100.00;69781.59;5188188;28;20047;-66
2022/10/03 03:49:17;;;;;;;12.65;11.63;;;;;;;-141.48;100.00;69781.59;5186964;28;20241;-66
2022/10/03 03:52:02;;;;;;;11.43;10.57;;;;;;;-141.48;100.00;69781.59;5187213;28;20033;-67
2022/10/03 03:54:40;;;;;;;12.15;9.98;;;;;;;-141.48;100.00;69781.59;5187623;28;20025;-66
2022/10/03 03:57:43;;;;;;;14.18;12.80;;;;;;;-141.48;100.00;69781.59;5205946;28;20136;-66
2022/10/03 04:00:19;;;;;;;13.27;12.15;;;;;;;-141.48;100.00;69781.59;5134873;28;20128;-66
2022/10/03 04:02:53;;;;;;;10.68;10.07;;;;;;;-141.48;100.00;69781.59;5188134;28;20029;-66
2022/10/03 04:05:45;;;;;;;24.63;11.63;;;;;;;-141.48;100.00;69781.59;5205567;28;20032;-66
2022/10/03 04:08:58;;;;;;;11.35;10.20;;;;;;;-141.48;100.00;69781.59;5187987;28;20029;-66
2022/10/03 04:11:48;;;;;;;10.95;9.95;;;;;;;-141.48;100.00;69781.59;5188099;28;20025;-66
2022/10/03 04:14:33;;;;;;;13.80;12.48;;;;;;;-141.48;100.00;69781.59;5205470;28;20077;-66
2022/10/03 04:20:06;;;;;;;13.90;12.50;;;;;;;-141.48;100.00;69781.59;5205730;28;20061;-66
2022/10/03 04:22:53;;;;;;;13.73;12.20;;;;;;;-141.48;100.00;69781.59;5187719;28;20026;-67
2022/10/03 04:25:39;;;;;;;12.07;11.13;;;;;;;-141.48;100.00;69781.59;5187589;28;20401;-66
2022/10/03 04:28:31;;;;;;;15.00;10.93;;;;;;;-141.48;100.00;69781.59;5187653;28;20393;-66
2022/10/03 04:31:51;;;;;;;14.98;12.25;;;;;;;-141.48;100.00;69781.59;5187498;28;20563;-66
2022/10/03 04:34:33;;;;;;;10.00;8.77;;;;;;;-141.48;100.00;69781.59;5203308;28;20041;-66
2022/10/03 04:37:42;;;;;;;14.02;12.90;;;;;;;-141.48;100.00;69781.59;5189430;28;20041;-66
2022/10/03 04:40:44;;;;;;;12.90;12.00;;;;;;;-141.48;100.00;69781.59;5143446;28;20088;-66
2022/10/03 04:43:18;;;;;;;21.17;11.88;;;;;;;-141.48;100.00;69781.59;5146816;28;20280;-66
2022/10/03 04:46:14;;;;;;;10.90;9.95;;;;;;;-141.48;100.00;69781.59;5146957;28;20030;-66
2022/10/03 04:49:10;;;;;;;16.20;13.13;;;;;;;-141.48;100.00;69781.59;5146651;28;20029;-66
2022/10/03 04:52:03;;;;;;;13.35;12.20;;;;;;;-141.48;100.00;69781.59;5146785;28;20093;-66
2022/10/03 04:55:16;;;;;;;11.20;10.40;;;;;;;-141.48;100.00;69781.59;5146659;28;20465;-66
2022/10/03 04:57:53;;;;;;;14.10;12.68;;;;;;;-141.48;100.00;69781.59;5146634;28;20042;-66
2022/10/03 05:00:45;;;;;;;13.40;12.20;;;;;;;-141.48;100.00;69781.59;5146563;28;20049;-66
2022/10/03 05:03:32;;;;;;;12.70;11.68;;;;;;;-141.48;100.00;69781.59;5146723;28;20120;-67
2022/10/03 05:06:24;;;;;;;12.73;11.50;;;;;;;-141.48;100.00;69781.59;5146829;28;20049;-67
2022/10/03 05:09:00;;;;;;;12.50;11.60;;;;;;;-141.48;100.00;69781.59;5146995;28;20023;-66
2022/10/03 05:11:36;;;;;;;15.43;12.43;;;;;;;-141.48;100.00;69781.59;5146720;28;20040;-66
2022/10/03 05:14:13;;;;;;;12.60;11.52;;;;;;;-141.48;100.00;69781.59;5146122;28;20026;-67
2022/10/03 05:17:08;;;;;;;12.98;11.88;;;;;;;-141.48;100.00;69781.59;5146155;28;20036;-67
2022/10/03 05:19:43;;;;;;;12.35;11.23;;;;;;;-141.48;100.00;69781.59;5163776;28;20054;-66
2022/10/03 05:22:35;;;;;;;12.43;11.40;;;;;;;-141.48;100.00;69781.59;5149130;28;20117;-67
2022/10/03 05:26:03;;;;;;;13.98;12.68;;;;;;;-141.48;100.00;69781.59;5159687;28;20168;-66
2022/10/03 05:28:34;;;;;;;14.32;12.95;;;;;;;-141.48;100.00;69781.59;5101389;29;20182;-67
2022/10/03 05:31:13;;;;;;;12.27;11.43;;;;;;;-141.48;100.00;69781.59;5083623;29;20042;-67
2022/10/03 05:34:01;;;;;;;20.27;12.23;;;;;;;-141.48;100.00;69781.59;5153226;28;20052;-67
2022/10/03 05:36:59;;;;;;;16.23;13.90;;;;;;;-141.48;100.00;69781.59;5186694;28;20025;-66
2022/10/03 05:40:15;;;;;;;14.45;13.00;;;;;;;-141.48;100.00;69781.59;5186204;28;20055;-65
2022/10/03 05:42:48;;;;;;;12.57;10.73;;;;;;;-141.48;100.00;69781.59;5186396;28;20021;-64
2022/10/03 05:45:42;;;;;;;14.75;13.30;;;;;;;-141.48;100.00;69781.59;5186194;28;20071;-66
2022/10/03 05:48:18;;;;;;;16.15;15.05;;;;;;;-141.48;100.00;69781.59;5185326;28;20029;-65
2022/10/03 05:51:07;;;;;;;13.57;12.63;;;;;;;-141.48;100.00;69781.59;5204162;28;20370;-67
2022/10/03 05:54:09;;;;;;;15.27;14.07;;;;;;;-141.48;100.00;69781.59;5185542;28;20169;-66
2022/10/03 05:57:01;;;;;;;13.85;12.75;;;;;;;-141.48;100.00;69781.59;5186423;28;20026;-65
2022/10/03 06:00:01;;;;;;;13.77;12.75;;;;;;;-141.48;100.00;69781.59;5203885;28;20022;-66
2022/10/03 06:02:58;;;;;;;14.95;13.18;;;;;;;-141.48;100.00;69781.59;5186146;28;20472;-67
2022/10/03 06:05:55;;;;;;;14.85;13.80;;;;;;;-141.48;100.00;69781.59;5186193;28;20035;-65
2022/10/03 06:08:49;;;;;;;15.63;14.05;;;;;;;-141.48;100.00;69781.59;5186063;28;20044;-65
2022/10/03 06:11:19;;;;;;;15.10;13.73;;;;;;;-141.48;100.00;69781.59;5186030;28;20056;-65
2022/10/03 06:14:11;;;;;;;22.65;14.15;;;;;;;-141.48;100.00;69781.59;5185422;28;20029;-65
2022/10/03 06:17:10;;;;;;;14.77;13.68;;;;;;;-141.48;100.00;69781.59;5186254;28;20029;-67
2022/10/03 06:19:43;;;;;;;16.50;15.23;;;;;;;-141.48;100.00;69781.59;5186129;28;20041;-67
2022/10/03 06:22:32;;;;;;;16.67;14.95;;;;;;;-141.48;100.00;69781.59;5186113;28;20036;-67
2022/10/03 06:25:34;;;;;;;24.23;16.35;;;;;;;-141.48;100.00;69781.59;5241433;22;20446;-80
2022/10/03 06:28:26;;;;;;;14.48;13.32;;;;;;;-141.48;100.00;69781.59;5239092;28;20049;-81
2022/10/03 06:31:20;;;;;;;17.52;12.98;;;;;;;-141.48;100.00;69781.59;5240045;28;20033;-81
2022/10/03 06:34:18;;;;;;;15.20;13.98;;;;;;;-141.48;100.00;69781.59;5209634;28;20049;-80
2022/10/03 06:36:58;;;;;;;17.88;14.68;;;;;;;-141.48;100.00;69781.59;5217571;28;20121;-80
2022/10/03 06:39:47;;;;;;;16.05;14.02;;;;;;;-141.48;100.00;69781.59;5217141;28;20138;-80
2022/10/03 06:42:20;;;;;;;17.63;15.98;;;;;;;-141.48;100.00;69781.59;5200717;28;20092;-81
2022/10/03 06:44:56;;;;;;;16.20;15.00;;;;;;;-141.48;100.00;69781.59;5217366;28;20021;-80
2022/10/03 06:48:05;;;;;;;17.65;15.98;;;;;;;-141.48;100.00;69781.59;5218104;28;20057;-80
2022/10/03 06:50:58;;;;;;;22.35;16.85;;;;;;;-141.48;100.00;69781.59;5129546;28;20041;-80
2022/10/03 06:53:43;;;;;;;19.38;17.85;;;;;;;-141.48;100.00;69781.59;5199318;28;20060;-80
2022/10/03 06:56:30;;;;;;;17.90;16.13;;;;;;;-141.48;100.00;69781.59;5217784;28;20083;-80
2022/10/03 06:59:22;;;;;;;17.60;16.30;;;;;;;-141.48;100.00;69781.59;5217274;28;20049;-80
2022/10/03 07:02:25;;;;;;;17.88;16.33;;;;;;;-141.48;100.00;69781.59;5217665;28;20038;-80
2022/10/03 07:05:34;;;;;;;16.77;15.10;;;;;;;-141.48;100.00;69781.59;5154110;28;20031;-80
2022/10/03 07:08:25;;;;;;;18.27;16.70;;;;;;;-141.48;100.00;69781.59;5172477;28;20037;-79
2022/10/03 07:11:25;;;;;;;17.27;15.70;;;;;;;-141.48;100.00;69781.59;5218280;28;20029;-80
2022/10/03 07:14:32;;;;;;;32.05;18.73;;;;;;;-141.48;100.00;69781.59;5217397;28;20116;-79
2022/10/03 07:17:33;;;;;;;19.92;16.67;;;;;;;-141.48;100.00;69781.59;5215613;28;20442;-80
2022/10/03 07:20:13;;;;;;;20.08;18.00;;;;;;;-141.48;100.00;69781.59;5199314;28;20017;-80
2022/10/03 07:23:05;;;;;;;21.40;19.53;;;;;;;-141.48;100.00;69781.59;5216996;28;20108;-80
2022/10/03 07:25:49;;;;;;;18.73;17.23;;;;;;;-141.48;100.00;69781.59;5220282;28;20276;-80
2022/10/03 07:28:41;;;;;;;19.92;18.38;;;;;;;-141.48;100.00;69781.59;5221685;28;20018;-81
2022/10/03 07:31:23;;;;;;;18.63;17.25;;;;;;;-141.48;100.00;69781.59;5220438;28;20037;-81
2022/10/03 07:34:39;;;;;;;19.80;18.08;;;;;;;-141.48;100.00;69781.59;5202178;28;20025;-81
2022/10/03 07:40:39;;;;;;;20.27;18.75;;;;;;;-141.48;100.00;69781.59;5222197;28;20060;-81
2022/10/03 07:43:57;;;;;;;22.08;18.60;;;;;;;-141.48;100.00;69781.59;5221747;28;20136;-87
2022/10/03 07:46:44;;;;;;;20.20;18.40;;;;;;;-141.48;100.00;69781.59;5093683;29;20051;-80
2022/10/03 07:49:29;;;;;;;22.08;19.85;;;;;;;-141.48;100.00;69781.59;5090371;29;20036;-81
2022/10/03 07:52:46;;;;;;;22.20;19.98;;;;;;;-141.48;100.00;69781.59;5158084;28;20052;-81
2022/10/03 07:55:38;;;;;;;17.92;16.50;;;;;;;-141.48;100.00;69781.59;5179286;28;20089;-80
2022/10/03 07:58:33;;;;;;;23.38;18.60;;;;;;;-141.48;100.00;69781.59;5179104;28;20026;-81
2022/10/03 08:01:16;;;;;;;19.10;17.33;;;;;;;-141.48;100.00;69781.59;5162865;28;20030;-81
2022/10/03 08:04:06;;;;;;;24.50;18.05;;;;;;;-141.48;100.00;69781.59;5178381;28;20027;-81
2022/10/03 08:06:42;;;;;;;25.10;18.30;;;;;;;-141.48;100.00;69781.59;5216144;28;20034;-80
2022/10/03 08:09:29;;;;;;;21.23;17.42;;;;;;;-141.48;100.00;69781.59;5219364;28;20029;-81
2022/10/03 08:12:19;;;;;;;25.85;17.05;;;;;;;-141.48;100.00;69781.59;5201900;28;20394;-81
2022/10/03 08:15:09;;;;;;;25.95;21.80;;;;;;;-141.48;100.00;69781.59;5201013;28;20025;-82
2022/10/03 08:18:01;;;;;;;20.73;18.95;;;;;;;-141.48;100.00;69781.59;5218858;28;20032;-80
2022/10/03 08:20:43;;;;;;;18.73;17.05;;;;;;;-141.48;100.00;69781.59;5219759;28;20024;-81
2022/10/03 08:23:37;;;;;;;20.58;18.58;;;;;;;-141.48;100.00;69781.59;5198328;28;20030;-81
2022/10/03 08:26:29;;;;;;;21.40;19.40;;;;;;;-141.48;100.00;69781.59;5179937;28;20022;-81
2022/10/03 08:29:00;;;;;;;26.90;21.85;;;;;;;-141.48;100.00;69781.59;5178389;28;20026;-81
2022/10/03 08:31:56;;;;;;;25.30;17.75;;;;;;;-141.48;100.00;69781.59;5178451;28;20065;-81
2022/10/03 08:34:39;;;;;;;20.27;18.00;;;;;;;-141.48;100.00;69781.59;5140190;28;20093;-81
2022/10/03 08:37:42;;;;;;;28.90;19.83;;;;;;;-141.48;100.00;69781.59;5178923;28;20026;-82
2022/10/03 08:40:31;;;;;;;19.95;18.23;;;;;;;-141.48;100.00;69781.59;5179907;28;20057;-82
2022/10/03 08:43:44;;;;;;;18.23;16.58;;;;;;;-141.48;100.00;69781.59;5162810;28;20117;-82
2022/10/03 08:46:35;;;;;;;23.30;18.90;;;;;;;-141.48;100.00;69781.59;5145566;28;20038;-81
2022/10/03 08:49:35;;;;;;;29.48;16.08;;;;;;;-141.48;100.00;69781.59;5178298;28;20091;-81
2022/10/03 08:52:35;;;;;;;21.38;17.38;;;;;;;-141.48;100.00;69781.59;5160244;28;20034;-81
2022/10/03 08:55:24;;;;;;;;;;;;;;;-141.48;100.00;69781.59;5176601;28;20470;-80
2022/10/03 08:58:18;;;;;;;20.10;17.88;;;;;;;-141.48;100.00;69781.59;5176943;28;19945;-80
2022/10/03 09:01:30;;;;;;;17.65;15.90;;;;;;;-141.48;100.00;69781.59;5177753;28;20030;-80
2022/10/03 09:04:38;;;;;;;17.85;16.40;;;;;;;-141.48;100.00;69781.59;5176782;28;20022;-82
2022/10/03 09:07:17;;;;;;;22.00;16.02;;;;;;;-141.48;100.00;69781.59;5177718;28;20032;-82
2022/10/03 09:09:59;;;;;;;24.38;16.83;;;;;;;-141.48;100.00;69781.59;5177260;28;20034;-82
2022/10/03 09:12:41;;;;;;;18.63;15.52;;;;;;;-141.48;100.00;69781.59;5177612;28;20038;-81
2022/10/03 09:15:29;;;;;;;17.95;14.55;;;;;;;-141.48;100.00;69781.59;5177486;28;20714;-81
2022/10/03 09:18:40;;;;;;;16.15;13.40;;;;;;;-141.48;100.00;69781.59;5177075;28;20029;-82
2022/10/03 09:21:35;;;;;;;12.77;11.48;;;;;;;-141.48;100.00;69781.59;5177045;28;20054;-82
2022/10/03 09:24:24;;;;;;;15.15;12.15;;;;;;;-141.48;100.00;69781.59;5159778;28;20500;-82
2022/10/03 09:27:42;;;;;;;15.07;11.25;;;;;;;-141.48;100.00;69781.59;5177779;28;20033;-80
2022/10/03 09:30:31;;;;;;;12.55;11.38;;;;;;;-141.48;100.00;69781.59;5152175;28;20118;-81
2022/10/03 09:33:28;;;;;;;;;;;;;;;-141.48;100.00;69781.59;5178869;28;20038;-80
2022/10/03 09:36:14;;;;;;;31.10;11.02;;;;;;;-141.48;100.00;69781.59;5178208;28;19913;-80
2022/10/03 09:38:56;;;;;;;10.57;9.32;;;;;;;-141.48;100.00;69781.59;5177772;28;20090;-82
2022/10/03 09:41:32;;;;;;;10.63;9.23;;;;;;;-141.48;100.00;69781.59;5170318;28;20075;-81
2022/10/03 09:44:41;;;;;;;13.30;9.77;;;;;;;-141.48;100.00;69781.59;5180546;28;20038;-82
2022/10/03 09:47:37;;;;;;;10.70;7.75;;;;;;;-141.48;100.00;69781.59;5114733;29;20062;-81
2022/10/03 09:50:35;;;;;;;7.85;7.25;;;;;;;-141.48;100.00;69781.59;5093638;29;20534;-81
2022/10/03 09:53:43;;;;;;;13.88;8.07;;;;;;;-141.48;100.00;69781.59;5171632;28;20034;-82
2022/10/03 09:56:36;;;;;;;9.13;6.00;;;;;;;-141.48;100.00;69781.59;5197868;28;20037;-82
2022/10/03 09:59:39;;;;;;;7.32;5.32;;;;;;;-141.48;100.00;69781.59;5199342;28;20049;-82
2022/10/03 10:02:28;;;;;;;7.95;5.03;;;;;;;-141.48;100.00;69781.59;5153971;28;20033;-82
2022/10/03 10:05:40;;;;;;;5.82;4.95;;;;;;;-141.48;100.00;69781.59;5180310;28;20056;-83
2022/10/03 10:08:13;;;;;;;11.73;6.50;;;;;;;-141.48;100.00;69781.59;5198887;28;20029;-82
2022/10/03 10:10:50;;;;;;;5.80;5.38;;;;;;;-141.48;100.00;69781.59;5197584;28;20115;-82
2022/10/03 10:13:41;;;;;;;6.18;5.65;;;;;;;-141.48;100.00;69781.59;5198230;28;20022;-82
2022/10/03 10:16:22;;;;;;;12.95;5.38;;;;;;;-141.48;100.00;69781.59;5197849;28;20036;-82
2022/10/03 10:18:59;;;;;;;6.95;4.88;;;;;;;-141.48;100.00;69781.59;5197742;28;20827;-82
2022/10/03 10:21:43;;;;;;;8.07;5.15;;;;;;;-141.48;100.00;69781.59;5180073;28;20053;-82
2022/10/03 10:24:45;;;;;;;8.55;5.93;;;;;;;-141.48;100.00;69781.59;5179931;28;20021;-81
2022/10/03 10:27:50;;;;;;;11.50;5.55;;;;;;;-141.48;100.00;69781.59;5179809;28;20030;-82
2022/10/03 10:30:37;;;;;;;11.40;4.40;;;;;;;-141.48;100.00;69781.59;5197981;28;20022;-82
2022/10/03 10:33:43;;;;;;;9.20;5.88;;;;;;;-141.48;100.00;69781.59;5197487;28;20026;-82
2022/10/03 10:36:35;;;;;;;7.68;6.20;;;;;;;-141.48;100.00;69781.59;5196988;28;20033;-82
2022/10/03 10:39:39;;;;;;;7.03;2.95;;;;;;;-141.48;100.00;69781.59;5179789;28;20052;-83
2022/10/03 10:42:47;;;;;;;4.20;3.83;;;;;;;-141.48;100.00;69781.59;5197139;28;20029;-83
2022/10/03 10:45:23;;;;;;;5.82;5.32;;;;;;;-141.48;100.00;69781.59;5196758;28;20034;-82
2022/10/03 10:48:12;;;;;;;3.25;3.05;;;;;;;-141.48;100.00;69781.59;5196909;28;20085;-82
2022/10/03 10:50:58;;;;;;;7.97;5.20;;;;;;;-141.48;100.00;69781.59;5196895;28;20026;-82
2022/10/03 10:54:06;;;;;;;8.27;5.30;;;;;;;-141.48;100.00;69781.59;5195333;28;20030;-83
2022/10/03 10:57:18;;;;;;;11.82;4.15;;;;;;;-141.48;100.00;69781.59;5179911;28;20092;-83
2022/10/03 11:00:19;;;;;;;8.55;4.72;;;;;;;-141.48;100.00;69781.59;5213875;28;20105;-83
2022/10/03 11:03:14;;;;;;;6.28;3.55;;;;;;;-141.48;100.00;69781.59;5220353;28;20033;-83
2022/10/03 11:06:16;;;;;;;7.82;4.82;;;;;;;-141.48;100.00;69781.59;5221783;28;20077;-83
2022/10/03 11:08:53;;;;;;;9.20;3.20;;;;;;;-141.48;100.00;69781.59;5221131;28;20025;-83
2022/10/03 11:11:46;;;;;;;5.88;4.13;;;;;;;-141.48;100.00;69781.59;5204332;28;20571;-83
2022/10/03 11:14:41;;;;;;;4.53;2.47;;;;;;;-141.48;100.00;69781.59;5203551;28;20033;-82
2022/10/03 11:17:40;;;;;;;5.20;3.25;;;;;;;-141.48;100.00;69781.59;5221482;28;20214;-84
2022/10/03 11:20:32;;;;;;;3.08;2.72;;;;;;;-141.48;100.00;69781.59;5204237;28;20576;-83
2022/10/03 11:23:17;;;;;;;5.82;3.72;;;;;;;-141.48;100.00;69781.59;5221137;28;20038;-82
2022/10/03 11:26:22;;;;;;;4.22;2.13;;;;;;;-141.48;100.00;69781.59;5220781;28;20021;-83
2022/10/03 11:29:11;;;;;;;2.45;2.17;;;;;;;-141.48;100.00;69781.59;5221116;28;20048;-83
2022/10/03 11:32:08;;;;;;;2.95;2.40;;;;;;;-141.48;100.00;69781.59;5221526;28;20033;-84
2022/10/03 11:34:42;;;;;;;8.23;2.72;;;;;;;-141.48;100.00;69781.59;5202747;28;20041;-84
2022/10/03 11:37:15;;;;;;;5.10;2.42;;;;;;;-141.48;100.00;69781.59;5221648;28;20029;-84
2022/10/03 11:40:15;;;;;;;4.43;3.40;;;;;;;-141.48;100.00;69781.59;5221506;28;20032;-84
2022/10/03 11:43:23;;;;;;;4.32;3.17;;;;;;;-141.48;100.00;69781.59;5221311;28;20032;-85
2022/10/03 11:46:01;;;;;;;4.78;3.25;;;;;;;-141.48;100.00;69781.59;5221312;28;20026;-84
2022/10/03 11:48:41;;;;;;;4.03;3.53;;;;;;;-141.48;100.00;69781.59;5221451;28;20032;-84
2022/10/03 11:51:35;;;;;;;2.00;1.90;;;;;;;-141.48;100.00;69781.59;5202834;28;20086;-83
2022/10/03 11:54:19;;;;;;;7.43;3.13;;;;;;;-141.48;100.00;69781.59;5170543;28;20033;-83
2022/10/03 11:57:01;;;;;;;2.63;2.40;;;;;;;-141.48;100.00;69781.59;5203818;28;20033;-83
2022/10/03 11:59:52;;;;;;;5.32;2.95;;;;;;;-141.48;100.00;69781.59;5204716;28;20029;-82
2022/10/03 12:02:23;;;;;;;5.85;3.47;;;;;;;-141.48;100.00;69781.59;5220436;28;20130;-84
2022/10/03 12:04:59;;;;;;;3.60;3.28;;;;;;;-141.48;100.00;69781.59;5219884;28;20013;-83
2022/10/03 12:10:56;;;;;;;6.32;2.80;;;;;;;-141.48;100.00;69781.59;5219329;28;20145;-84
2022/10/03 12:14:02;;;;;;;7.50;3.17;;;;;;;-141.48;100.00;69781.59;5219646;28;20024;-82
2022/10/03 12:17:10;;;;;;;5.70;3.65;;;;;;;-141.48;100.00;69781.59;5202535;28;20080;-84
2022/10/03 12:20:19;;;;;;;7.97;4.63;;;;;;;-141.48;100.00;69781.59;5197214;28;20064;-82
2022/10/03 12:23:19;;;;;;;8.10;2.95;;;;;;;-141.48;100.00;69781.59;5202463;28;20033;-81
2022/10/03 12:25:52;;;;;;;3.80;2.83;;;;;;;-141.48;100.00;69781.59;5228878;22;20090;-80
2022/10/03 12:28:41;;;;;;;4.00;3.70;;;;;;;-141.48;100.00;69781.59;5209512;28;20029;-82
2022/10/03 12:31:21;;;;;;;3.00;2.80;;;;;;;-141.48;100.00;69781.59;5209499;28;20033;-80
2022/10/03 12:34:02;;;;;;;5.82;2.95;;;;;;;-141.48;100.00;69781.59;5194764;28;20498;-81
2022/10/03 12:36:42;;;;;;;2.50;2.30;;;;;;;-141.48;100.00;69781.59;5189434;28;20030;-79
2022/10/03 12:39:51;;;;;;;3.88;3.58;;;;;;;-141.48;100.00;69781.59;5188368;28;20026;-82
2022/10/03 12:42:25;;;;;;;3.05;2.85;;;;;;;-141.48;100.00;69781.59;5185948;28;20555;-81
2022/10/03 12:45:21;;;;;;;5.05;3.45;;;;;;;-141.48;100.00;69781.59;5185526;28;20500;-80
2022/10/03 12:48:07;;;;;;;5.72;2.38;;;;;;;-141.48;100.00;69781.59;5186506;28;20046;-81
2022/10/03 12:50:56;;;;;;;3.42;3.00;;;;;;;-141.48;100.00;69781.59;5186208;28;20077;-83
2022/10/03 12:53:56;;;;;;;2.67;2.50;;;;;;;-141.48;100.00;69781.59;5185725;28;20021;-80
2022/10/03 12:56:36;;;;;;;9.05;4.35;;;;;;;-141.48;100.00;69781.59;5169008;28;20040;-80
2022/10/03 12:59:34;;;;;;;3.97;3.67;;;;;;;-141.48;100.00;69781.59;5185682;28;20018;-81